Time;durP1;ratioP1;P1;durP2;ratioP2;P2;SDS_P1;SDS_P2;PMS_P1;PMS_P2;Temp;Humidity;BMP_temperature;BMP_pressure;BME280_temperature;BME280_humidity;BME280_pressure;Samples;Min_cycle;Max_cycle;Signal;HPM_P1;HPM_P2
2021/03/04 00:02:06;;;;;;;44.30;18.77;;;4.10;99.90;;;;;;5094684;28;20055;-58
2021/03/04 00:04:32;;;;;;;42.05;17.52;;;4.10;99.90;;;;;;5094815;28;20051;-58
2021/03/04 00:06:58;;;;;;;43.38;18.42;;;4.10;99.90;;;;;;5094520;28;20480;-58
2021/03/04 00:09:24;;;;;;;41.10;18.38;;;4.10;99.90;;;;;;5093572;28;20040;-58
2021/03/04 00:11:49;;;;;;;37.80;17.80;;;4.10;99.90;;;;;;5094377;28;20040;-58
2021/03/04 00:14:15;;;;;;;40.90;19.58;;;4.20;99.90;;;;;;5094621;28;20048;-58
2021/03/04 00:16:41;;;;;;;38.30;18.65;;;4.10;99.90;;;;;;5094352;28;20485;-58
2021/03/04 00:19:07;;;;;;;37.45;17.25;;;4.20;99.90;;;;;;5094484;28;20474;-58
2021/03/04 00:21:33;;;;;;;33.50;16.45;;;4.20;99.90;;;;;;5094271;28;20039;-58
2021/03/04 00:23:58;;;;;;;31.77;16.50;;;4.30;99.90;;;;;;5094588;28;20043;-58
2021/03/04 00:26:24;;;;;;;36.28;17.80;;;4.30;99.90;;;;;;5094103;28;20060;-58
2021/03/04 00:28:51;;;;;;;36.80;17.48;;;4.20;99.90;;;;;;5094555;28;20052;-57
2021/03/04 00:31:18;;;;;;;34.10;16.02;;;4.20;99.90;;;;;;5094746;28;20067;-58
2021/03/04 00:33:44;;;;;;;37.25;18.58;;;4.20;99.90;;;;;;5094120;28;20462;-58
2021/03/04 00:36:09;;;;;;;33.53;17.50;;;4.20;99.90;;;;;;5094029;28;20434;-58
2021/03/04 00:38:39;;;;;;;37.95;16.70;;;4.20;99.90;;;;;;5093941;28;20678;-58
2021/03/04 00:41:05;;;;;;;37.05;17.73;;;4.10;99.90;;;;;;5094099;28;20127;-58
2021/03/04 00:43:32;;;;;;;40.20;17.30;;;4.10;99.90;;;;;;5093730;28;20409;-57
2021/03/04 00:45:57;;;;;;;40.38;18.77;;;4.00;99.90;;;;;;5093875;28;20042;-58
2021/03/04 00:48:23;;;;;;;40.28;16.92;;;4.00;99.90;;;;;;5093871;28;20036;-58
2021/03/04 00:50:49;;;;;;;42.65;19.35;;;4.10;99.90;;;;;;5093702;28;20370;-58
2021/03/04 00:53:14;;;;;;;41.35;19.13;;;4.10;99.90;;;;;;5093524;28;20047;-58
2021/03/04 00:55:40;;;;;;;41.97;19.42;;;4.00;99.90;;;;;;5093938;28;20097;-58
2021/03/04 00:58:06;;;;;;;45.17;19.90;;;4.20;99.90;;;;;;5093605;28;20044;-58
2021/03/04 01:00:31;;;;;;;40.65;18.67;;;4.10;99.90;;;;;;5093475;28;20040;-58
2021/03/04 01:02:58;;;;;;;44.78;19.85;;;4.10;99.90;;;;;;5093472;28;20123;-58
2021/03/04 01:05:24;;;;;;;41.75;19.05;;;4.10;99.90;;;;;;5093456;28;20124;-58
2021/03/04 01:07:50;;;;;;;35.50;17.63;;;4.10;99.90;;;;;;5093224;28;20052;-58
2021/03/04 01:10:21;;;;;;;40.30;18.23;;;4.10;99.90;;;;;;5092984;28;20553;-57
2021/03/04 01:12:47;;;;;;;38.22;19.20;;;4.10;99.90;;;;;;5093188;28;20044;-58
2021/03/04 01:15:15;;;;;;;37.65;18.75;;;4.10;99.90;;;;;;5093124;28;20044;-58
2021/03/04 01:17:42;;;;;;;43.20;19.85;;;4.10;99.90;;;;;;5093388;28;20048;-58
2021/03/04 01:20:10;;;;;;;45.97;20.23;;;4.10;99.90;;;;;;5093297;28;20036;-58
2021/03/04 01:22:37;;;;;;;;;;;4.10;99.90;;;;;;5093345;28;20492;-58
2021/03/04 01:25:05;;;;;;;42.65;18.92;;;4.10;99.90;;;;;;5092803;28;19916;-58
2021/03/04 01:27:30;;;;;;;46.30;20.73;;;4.20;99.90;;;;;;5093254;28;20052;-58
2021/03/04 01:29:56;;;;;;;44.97;20.45;;;4.10;99.90;;;;;;5093155;28;20048;-58
2021/03/04 01:32:22;;;;;;;46.45;21.02;;;4.10;99.90;;;;;;5092920;28;20054;-58
2021/03/04 01:34:48;;;;;;;47.20;21.92;;;4.10;99.90;;;;;;5093161;28;20131;-58
2021/03/04 01:37:14;;;;;;;60.30;23.20;;;4.10;99.90;;;;;;5092989;28;20132;-58
2021/03/04 01:39:40;;;;;;;53.47;23.92;;;4.10;99.90;;;;;;5092743;28;20474;-58
2021/03/04 01:42:06;;;;;;;50.15;21.55;;;4.10;99.90;;;;;;5092506;28;20055;-58
2021/03/04 01:44:32;;;;;;;48.90;21.92;;;4.10;99.90;;;;;;5092745;28;20131;-58
2021/03/04 01:46:58;;;;;;;47.22;20.60;;;4.10;99.90;;;;;;5092983;28;20143;-58
2021/03/04 01:49:25;;;;;;;43.30;20.23;;;4.00;99.90;;;;;;5092526;28;20442;-58
2021/03/04 01:51:51;;;;;;;46.75;19.38;;;4.10;99.90;;;;;;5092749;28;20131;-58
2021/03/04 01:54:17;;;;;;;40.65;19.48;;;4.00;99.90;;;;;;5092845;28;20187;-57
2021/03/04 01:56:44;;;;;;;37.30;17.80;;;4.10;99.90;;;;;;5092810;28;20051;-58
2021/03/04 01:59:10;;;;;;;35.65;17.50;;;4.10;99.90;;;;;;5092988;28;20039;-58
2021/03/04 02:01:36;;;;;;;38.78;17.30;;;4.10;99.90;;;;;;5093313;28;20126;-58
2021/03/04 02:04:04;;;;;;;34.35;16.75;;;4.10;99.90;;;;;;5092360;28;20401;-58
2021/03/04 02:06:55;;;;;;;34.80;15.90;;;4.20;99.90;;;;;;5092712;28;20059;-58
2021/03/04 02:09:22;;;;;;;35.88;17.05;;;4.10;99.90;;;;;;5092496;28;20139;-58
2021/03/04 02:12:06;;;;;;;33.47;16.25;;;4.10;99.90;;;;;;5092342;28;20071;-58
2021/03/04 02:14:44;;;;;;;30.13;14.98;;;4.00;99.90;;;;;;5092612;28;20044;-58
2021/03/04 02:17:12;;;;;;;23.13;12.90;;;4.00;99.90;;;;;;5092151;28;20058;-58
2021/03/04 02:19:48;;;;;;;24.25;13.35;;;4.10;99.90;;;;;;5092186;28;20504;-58
2021/03/04 02:22:25;;;;;;;26.65;13.68;;;4.00;99.90;;;;;;5092522;28;20484;-58
2021/03/04 02:25:18;;;;;;;29.83;13.85;;;4.00;99.90;;;;;;5092219;28;20080;-58
2021/03/04 02:27:45;;;;;;;26.50;14.10;;;3.90;99.90;;;;;;5091963;28;20048;-58
2021/03/04 02:30:18;;;;;;;27.83;13.32;;;3.90;99.90;;;;;;5091943;28;20478;-58
2021/03/04 02:32:51;;;;;;;24.65;13.23;;;3.90;99.90;;;;;;5092914;28;20032;-58
2021/03/04 02:35:25;;;;;;;26.15;13.55;;;3.80;99.90;;;;;;5096279;28;20044;-58
2021/03/04 02:37:57;;;;;;;23.98;12.55;;;3.90;99.90;;;;;;5096236;28;20115;-58
2021/03/04 02:40:26;;;;;;;26.38;13.90;;;3.90;99.90;;;;;;5078169;28;20044;-58
2021/03/04 02:42:53;;;;;;;19.92;12.20;;;3.90;99.90;;;;;;5096288;28;20408;-58
2021/03/04 02:45:22;;;;;;;26.23;13.25;;;3.90;99.90;;;;;;5096445;28;20481;-58
2021/03/04 02:47:49;;;;;;;23.95;12.25;;;3.90;99.90;;;;;;5096467;28;20052;-58
2021/03/04 02:50:15;;;;;;;20.40;11.73;;;4.00;99.90;;;;;;5096148;28;20044;-58
2021/03/04 02:52:41;;;;;;;21.70;12.88;;;4.00;99.90;;;;;;5096006;28;20533;-58
2021/03/04 02:55:08;;;;;;;20.85;12.40;;;3.90;99.90;;;;;;5095720;28;20051;-58
2021/03/04 02:57:38;;;;;;;22.90;11.60;;;3.90;99.90;;;;;;5096223;28;20097;-58
2021/03/04 03:00:06;;;;;;;20.73;11.65;;;3.90;99.90;;;;;;5096204;28;20047;-58
2021/03/04 03:02:33;;;;;;;17.77;10.95;;;3.90;99.90;;;;;;5095983;28;20066;-58
2021/03/04 03:05:01;;;;;;;17.00;10.23;;;3.90;99.90;;;;;;5095540;28;20052;-57
2021/03/04 03:07:27;;;;;;;18.92;10.23;;;3.90;99.90;;;;;;5095521;28;20063;-58
2021/03/04 03:09:54;;;;;;;19.42;11.68;;;3.80;99.90;;;;;;5096093;28;20090;-58
2021/03/04 03:12:20;;;;;;;20.40;10.65;;;3.80;99.90;;;;;;5095809;28;20690;-58
2021/03/04 03:14:46;;;;;;;20.33;11.68;;;3.80;99.90;;;;;;5095983;28;20059;-58
2021/03/04 03:17:12;;;;;;;20.55;11.43;;;3.80;99.90;;;;;;5095918;28;20059;-58
2021/03/04 03:19:38;;;;;;;23.17;10.18;;;3.70;99.90;;;;;;5095710;28;20044;-58
2021/03/04 03:22:06;;;;;;;22.63;11.10;;;3.60;99.90;;;;;;5095558;28;20062;-58
2021/03/04 03:24:31;;;;;;;21.27;11.68;;;3.70;99.90;;;;;;5095654;28;20054;-58
2021/03/04 03:26:57;;;;;;;21.08;11.43;;;3.70;99.90;;;;;;5095021;28;20143;-58
2021/03/04 03:29:23;;;;;;;20.15;11.20;;;3.70;99.90;;;;;;5095191;28;20044;-58
2021/03/04 03:31:53;;;;;;;21.38;10.77;;;3.80;99.90;;;;;;5095285;28;20130;-58
2021/03/04 03:34:20;;;;;;;17.88;9.40;;;3.80;99.90;;;;;;5095106;28;20500;-58
2021/03/04 03:36:48;;;;;;;19.02;10.88;;;3.90;99.90;;;;;;5095482;28;20443;-58
2021/03/04 03:39:14;;;;;;;17.38;9.80;;;3.90;99.90;;;;;;5094925;28;20036;-58
2021/03/04 03:41:42;;;;;;;18.40;10.30;;;3.80;99.90;;;;;;5095086;28;20103;-58
2021/03/04 03:44:10;;;;;;;17.48;9.52;;;3.80;99.90;;;;;;5094111;28;20097;-58
2021/03/04 03:46:38;;;;;;;13.95;9.15;;;3.80;99.90;;;;;;5094922;28;20089;-58
2021/03/04 03:49:07;;;;;;;18.52;10.73;;;3.80;99.90;;;;;;5095690;28;20050;-58
2021/03/04 03:51:34;;;;;;;18.83;10.65;;;3.80;99.90;;;;;;5094917;28;20036;-58
2021/03/04 03:54:02;;;;;;;17.85;10.70;;;3.70;99.90;;;;;;5094841;28;20040;-58
2021/03/04 03:56:29;;;;;;;17.52;9.95;;;3.60;99.90;;;;;;5094723;28;20044;-58
2021/03/04 03:58:58;;;;;;;16.73;10.20;;;3.70;99.90;;;;;;5094958;28;20051;-57
2021/03/04 04:01:26;;;;;;;19.05;11.38;;;3.70;99.90;;;;;;5094690;28;20043;-58
2021/03/04 04:03:57;;;;;;;16.50;10.30;;;3.70;99.90;;;;;;5094643;28;20401;-58
2021/03/04 04:06:25;;;;;;;18.85;10.07;;;3.80;99.90;;;;;;5094477;28;20044;-58
2021/03/04 04:08:55;;;;;;;17.42;10.18;;;3.80;99.90;;;;;;5094924;28;20097;-58
2021/03/04 04:11:25;;;;;;;15.52;9.07;;;3.80;99.90;;;;;;5094694;28;20040;-58
2021/03/04 04:13:51;;;;;;;17.27;9.77;;;3.80;99.90;;;;;;5094472;28;20132;-58
2021/03/04 04:16:17;;;;;;;17.30;9.90;;;3.80;99.90;;;;;;5094404;28;20036;-58
2021/03/04 04:18:44;;;;;;;15.07;8.85;;;3.80;99.90;;;;;;5094799;28;20404;-58
2021/03/04 04:21:11;;;;;;;17.60;10.52;;;3.80;99.90;;;;;;5094407;28;20098;-58
2021/03/04 04:23:38;;;;;;;16.63;9.63;;;3.80;99.90;;;;;;5094256;28;20071;-58
2021/03/04 04:26:04;;;;;;;16.92;9.95;;;3.70;99.90;;;;;;5094005;28;20080;-58
2021/03/04 04:28:30;;;;;;;19.48;10.00;;;3.70;99.90;;;;;;5094317;28;20075;-58
2021/03/04 04:30:55;;;;;;;18.80;10.77;;;3.70;99.90;;;;;;5094300;28;20044;-58
2021/03/04 04:33:21;;;;;;;17.85;10.85;;;3.70;99.90;;;;;;5094180;28;20036;-58
2021/03/04 04:35:48;;;;;;;18.27;10.90;;;3.70;99.90;;;;;;5094214;28;20097;-58
2021/03/04 04:38:14;;;;;;;17.05;10.30;;;3.70;99.90;;;;;;5093945;28;20028;-58
2021/03/04 04:40:43;;;;;;;15.18;9.38;;;3.70;99.90;;;;;;5094071;28;20538;-58
2021/03/04 04:43:09;;;;;;;15.82;9.43;;;3.70;99.90;;;;;;5094057;28;20040;-57
2021/03/04 04:45:36;;;;;;;17.10;9.93;;;3.60;99.90;;;;;;5093971;28;20074;-58
2021/03/04 04:48:02;;;;;;;16.40;10.45;;;3.60;99.90;;;;;;5093847;28;20036;-58
2021/03/04 04:50:27;;;;;;;17.05;9.43;;;3.70;99.90;;;;;;5094004;28;20044;-58
2021/03/04 04:52:53;;;;;;;16.58;9.95;;;3.70;99.90;;;;;;5093660;28;20051;-58
2021/03/04 04:55:19;;;;;;;16.60;9.68;;;3.80;99.90;;;;;;5093463;28;20052;-58
2021/03/04 04:57:45;;;;;;;15.55;9.80;;;3.80;99.90;;;;;;5093769;28;20492;-58
2021/03/04 05:00:11;;;;;;;18.52;10.13;;;3.80;99.90;;;;;;5093841;28;20040;-58
2021/03/04 05:02:38;;;;;;;15.55;9.52;;;3.70;99.90;;;;;;5093872;28;20131;-58
2021/03/04 05:05:08;;;;;;;14.93;9.55;;;3.70;99.90;;;;;;5093833;28;20097;-58
2021/03/04 05:07:35;;;;;;;16.25;10.02;;;3.70;99.90;;;;;;5093221;28;20040;-58
2021/03/04 05:10:06;;;;;;;16.80;8.95;;;3.80;99.90;;;;;;5093423;28;20127;-58
2021/03/04 05:12:32;;;;;;;14.48;9.15;;;3.80;99.90;;;;;;5093400;28;20059;-58
2021/03/04 05:14:58;;;;;;;17.20;9.52;;;3.70;99.90;;;;;;5093562;28;20040;-58
2021/03/04 05:17:24;;;;;;;14.65;9.52;;;3.70;99.90;;;;;;5093326;28;20075;-58
2021/03/04 05:19:49;;;;;;;16.92;9.90;;;3.70;99.90;;;;;;5093199;28;20040;-58
2021/03/04 05:22:15;;;;;;;15.43;9.38;;;3.70;99.90;;;;;;5093347;28;20561;-58
2021/03/04 05:24:41;;;;;;;17.33;9.60;;;3.80;99.90;;;;;;5093094;28;20445;-58
2021/03/04 05:27:07;;;;;;;14.20;8.98;;;3.80;99.90;;;;;;5093389;28;20091;-58
2021/03/04 05:29:33;;;;;;;16.58;9.65;;;3.80;99.90;;;;;;5092978;28;20419;-58
2021/03/04 05:31:59;;;;;;;16.05;9.30;;;3.80;99.90;;;;;;5093272;28;20123;-58
2021/03/04 05:34:24;;;;;;;14.07;8.93;;;3.90;99.90;;;;;;5093139;28;20786;-58
2021/03/04 05:36:50;;;;;;;12.45;8.77;;;3.90;99.90;;;;;;5093344;28;20069;-58
2021/03/04 05:39:16;;;;;;;14.05;9.35;;;4.00;99.90;;;;;;5092846;28;20100;-58
2021/03/04 05:41:43;;;;;;;14.27;8.90;;;4.00;99.90;;;;;;5092859;28;20051;-58
2021/03/04 05:44:10;;;;;;;11.80;8.90;;;4.00;99.90;;;;;;5093139;28;20072;-57
2021/03/04 05:46:39;;;;;;;15.02;9.75;;;4.00;99.90;;;;;;5092853;28;20051;-58
2021/03/04 05:49:11;;;;;;;13.73;9.75;;;4.00;99.90;;;;;;5092960;28;20072;-57
2021/03/04 05:51:40;;;;;;;12.27;8.47;;;4.00;99.90;;;;;;5092610;28;20508;-58
2021/03/04 05:54:07;;;;;;;;;;;3.90;99.90;;;;;;5093006;28;20119;-57
2021/03/04 05:56:35;;;;;;;14.60;8.85;;;4.00;99.90;;;;;;5092775;28;19943;-58
2021/03/04 05:59:02;;;;;;;13.07;9.43;;;3.90;99.90;;;;;;5092826;28;20043;-58
2021/03/04 06:01:29;;;;;;;17.13;9.30;;;3.90;99.90;;;;;;5092711;28;20062;-58
2021/03/04 06:03:55;;;;;;;13.55;9.32;;;3.90;99.90;;;;;;5092639;28;20044;-58
2021/03/04 06:06:21;;;;;;;17.90;10.05;;;3.90;99.90;;;;;;5092792;28;20054;-58
2021/03/04 06:08:47;;;;;;;12.63;8.90;;;3.90;99.90;;;;;;5091679;28;20052;-57
2021/03/04 06:11:13;;;;;;;13.88;9.15;;;3.90;99.90;;;;;;5092413;28;20059;-58
2021/03/04 06:13:38;;;;;;;13.98;9.57;;;4.00;99.90;;;;;;5092491;28;20044;-58
2021/03/04 06:16:05;;;;;;;15.73;9.70;;;3.90;99.90;;;;;;5092668;28;20461;-58
2021/03/04 06:18:44;;;;;;;14.65;8.88;;;4.00;99.90;;;;;;5092481;28;20040;-57
2021/03/04 06:21:21;;;;;;;13.13;8.77;;;4.00;99.90;;;;;;5092509;28;20040;-58
2021/03/04 06:23:47;;;;;;;13.75;9.00;;;4.00;99.90;;;;;;5092353;28;20052;-58
2021/03/04 06:26:37;;;;;;;13.48;9.55;;;4.00;99.90;;;;;;5092034;28;20409;-57
2021/03/04 06:29:17;;;;;;;14.85;9.40;;;4.00;99.90;;;;;;5092452;28;20055;-58
2021/03/04 06:31:58;;;;;;;14.75;8.55;;;4.00;99.90;;;;;;5092100;28;20104;-58
2021/03/04 06:34:23;;;;;;;13.43;8.52;;;4.00;99.90;;;;;;5092243;28;20048;-58
2021/03/04 06:36:55;;;;;;;13.13;8.95;;;4.00;99.90;;;;;;5092211;28;20400;-57
2021/03/04 06:39:21;;;;;;;15.48;8.60;;;4.00;99.90;;;;;;5074236;28;20370;-58
2021/03/04 06:41:58;;;;;;;14.02;9.70;;;4.00;99.90;;;;;;5092038;28;20088;-57
2021/03/04 06:44:23;;;;;;;13.70;8.73;;;4.00;99.90;;;;;;5092425;28;20078;-58
2021/03/04 06:46:49;;;;;;;14.32;9.13;;;4.00;99.90;;;;;;5073800;28;20075;-58
2021/03/04 06:49:15;;;;;;;15.45;9.00;;;4.00;99.90;;;;;;5092115;28;20048;-58
2021/03/04 06:51:45;;;;;;;12.38;8.48;;;4.00;99.90;;;;;;5091957;28;20043;-58
2021/03/04 06:54:23;;;;;;;13.50;8.50;;;4.00;99.90;;;;;;5092229;28;20048;-58
2021/03/04 06:56:49;;;;;;;11.52;8.82;;;4.00;99.90;;;;;;5091953;28;20508;-58
2021/03/04 06:59:15;;;;;;;11.80;7.97;;;4.00;99.90;;;;;;5091828;28;20499;-58
2021/03/04 07:01:42;;;;;;;13.45;8.38;;;4.10;99.90;;;;;;5091966;28;20105;-58
2021/03/04 07:04:16;;;;;;;14.15;7.80;;;4.10;99.90;;;;;;5091750;28;20040;-58
2021/03/04 07:06:45;;;;;;;11.85;8.40;;;4.20;99.90;;;;;;5092093;28;20115;-58
2021/03/04 07:09:14;;;;;;;10.82;8.18;;;4.20;99.90;;;;;;5091757;28;20058;-58
2021/03/04 07:11:43;;;;;;;13.05;8.48;;;4.20;99.90;;;;;;5091939;28;20062;-58
2021/03/04 07:14:09;;;;;;;11.20;8.20;;;4.20;99.90;;;;;;5091866;28;20457;-58
2021/03/04 07:16:45;;;;;;;10.13;7.80;;;4.20;99.90;;;;;;5091920;28;20071;-58
2021/03/04 07:19:13;;;;;;;10.30;7.28;;;4.20;99.90;;;;;;5092892;28;20051;-58
2021/03/04 07:21:41;;;;;;;12.93;8.38;;;4.20;99.90;;;;;;5095522;28;20111;-58
2021/03/04 07:24:07;;;;;;;10.68;7.70;;;4.10;99.90;;;;;;5095733;28;20078;-58
2021/03/04 07:26:36;;;;;;;10.85;7.43;;;4.20;99.90;;;;;;5095291;28;20048;-58
2021/03/04 07:29:07;;;;;;;10.40;7.85;;;4.20;99.90;;;;;;5095373;28;20066;-58
2021/03/04 07:31:36;;;;;;;12.90;6.57;;;4.20;99.90;;;;;;5095423;28;20097;-58
2021/03/04 07:34:02;;;;;;;12.80;6.93;;;4.20;99.90;;;;;;5095290;28;20048;-58
2021/03/04 07:36:29;;;;;;;10.27;6.63;;;4.20;99.90;;;;;;5095285;28;20050;-58
2021/03/04 07:39:00;;;;;;;9.70;6.70;;;4.20;99.90;;;;;;5095220;28;20117;-58
2021/03/04 07:41:44;;;;;;;10.65;6.80;;;4.20;99.90;;;;;;5095448;28;20062;-58
2021/03/04 07:44:21;;;;;;;8.18;6.55;;;4.20;99.90;;;;;;5095694;28;20043;-58
2021/03/04 07:46:53;;;;;;;10.95;6.30;;;4.30;99.90;;;;;;5095267;28;20036;-58
2021/03/04 07:49:35;;;;;;;10.63;6.68;;;4.30;99.90;;;;;;5095157;28;20032;-58
2021/03/04 07:52:08;;;;;;;12.00;5.63;;;4.30;99.90;;;;;;5094973;28;20522;-58
2021/03/04 07:54:36;;;;;;;9.40;5.28;;;4.40;99.90;;;;;;5094843;28;20051;-58
2021/03/04 07:57:04;;;;;;;8.43;5.30;;;4.40;99.90;;;;;;5094740;28;20424;-58
2021/03/04 07:59:30;;;;;;;8.93;5.55;;;4.40;99.90;;;;;;5094988;28;20311;-58
2021/03/04 08:01:58;;;;;;;12.20;5.45;;;4.40;99.90;;;;;;5094780;28;20039;-58
2021/03/04 08:04:26;;;;;;;7.45;5.43;;;4.50;99.90;;;;;;5095057;28;20048;-58
2021/03/04 08:06:53;;;;;;;10.50;5.88;;;4.50;99.90;;;;;;5094716;28;20135;-58
2021/03/04 08:09:35;;;;;;;12.18;5.40;;;4.50;99.90;;;;;;5094809;28;20052;-58
2021/03/04 08:12:13;;;;;;;8.15;5.22;;;4.50;99.90;;;;;;5094652;28;20047;-58
2021/03/04 08:14:41;;;;;;;12.40;5.78;;;4.50;99.90;;;;;;5094566;28;20496;-58
2021/03/04 08:17:08;;;;;;;10.32;5.35;;;4.60;99.90;;;;;;5094491;28;20492;-58
2021/03/04 08:19:35;;;;;;;6.47;5.13;;;4.60;99.90;;;;;;5094481;28;20036;-58
2021/03/04 08:22:03;;;;;;;5.55;4.65;;;4.60;99.90;;;;;;5094395;28;20473;-58
2021/03/04 08:24:30;;;;;;;7.22;4.95;;;4.70;99.90;;;;;;5094684;28;20044;-58
2021/03/04 08:26:57;;;;;;;11.07;5.13;;;4.70;99.90;;;;;;5094342;28;20052;-58
2021/03/04 08:29:23;;;;;;;6.05;4.10;;;4.70;99.90;;;;;;5094487;28;20044;-58
2021/03/04 08:31:52;;;;;;;7.82;4.78;;;4.80;99.90;;;;;;5093875;28;20044;-58
2021/03/04 08:34:18;;;;;;;8.73;4.53;;;4.80;99.90;;;;;;5094082;28;20063;-58
2021/03/04 08:36:50;;;;;;;7.60;4.40;;;4.80;99.90;;;;;;5076576;28;20051;-58
2021/03/04 08:39:17;;;;;;;7.40;4.45;;;4.80;99.90;;;;;;5094257;28;20040;-58
2021/03/04 08:41:43;;;;;;;10.30;5.47;;;4.80;99.90;;;;;;5094413;28;20477;-58
2021/03/04 08:44:16;;;;;;;7.97;4.60;;;4.80;99.90;;;;;;5094006;28;20067;-58
2021/03/04 08:46:45;;;;;;;7.72;4.45;;;4.80;99.90;;;;;;5093975;28;20131;-58
2021/03/04 08:49:21;;;;;;;10.88;4.80;;;4.80;99.90;;;;;;5093740;28;20048;-58
2021/03/04 08:51:47;;;;;;;9.60;5.00;;;4.90;99.90;;;;;;5093927;28;20044;-58
2021/03/04 08:54:23;;;;;;;8.95;4.63;;;4.90;99.90;;;;;;5094119;28;20044;-58
2021/03/04 08:57:05;;;;;;;8.05;4.10;;;4.90;99.90;;;;;;5093688;28;20397;-58
2021/03/04 08:59:32;;;;;;;7.38;4.47;;;4.90;99.90;;;;;;5093985;28;20550;-59
2021/03/04 09:01:59;;;;;;;11.95;5.22;;;4.90;99.90;;;;;;5094007;28;20076;-58
2021/03/04 09:04:27;;;;;;;6.47;4.40;;;5.00;99.90;;;;;;5094043;28;20143;-58
2021/03/04 09:06:54;;;;;;;7.03;4.43;;;5.10;99.90;;;;;;5093527;28;20052;-58
2021/03/04 09:09:29;;;;;;;8.68;4.32;;;5.10;99.90;;;;;;5093320;28;20040;-58
2021/03/04 09:11:56;;;;;;;6.78;4.18;;;5.10;99.90;;;;;;5093412;28;20115;-58
2021/03/04 09:14:29;;;;;;;11.75;5.95;;;5.10;99.90;;;;;;5075288;28;20135;-58
2021/03/04 09:16:56;;;;;;;8.43;4.03;;;5.10;99.90;;;;;;5093451;28;20036;-58
2021/03/04 09:19:28;;;;;;;6.88;4.50;;;5.10;99.90;;;;;;5093544;28;20054;-58
2021/03/04 09:21:56;;;;;;;8.73;4.75;;;5.10;99.90;;;;;;5093957;28;20040;-58
2021/03/04 09:24:22;;;;;;;6.55;3.83;;;5.10;99.90;;;;;;5093583;28;20174;-58
2021/03/04 09:26:48;;;;;;;8.38;4.63;;;5.20;99.90;;;;;;5093301;28;20052;-58
2021/03/04 09:29:14;;;;;;;6.82;4.20;;;5.30;99.90;;;;;;5092912;28;20036;-58
2021/03/04 09:31:53;;;;;;;10.68;4.35;;;5.30;99.90;;;;;;5093162;28;20093;-58
2021/03/04 09:34:33;;;;;;;6.25;4.30;;;5.30;99.90;;;;;;5093105;28;20040;-58
2021/03/04 09:37:06;;;;;;;5.35;3.60;;;5.30;99.90;;;;;;5093324;28;20048;-58
2021/03/04 09:39:43;;;;;;;5.68;4.38;;;5.30;99.90;;;;;;5093183;28;20410;-58
2021/03/04 09:42:13;;;;;;;7.97;3.90;;;5.30;99.90;;;;;;5093124;28;20443;-58
2021/03/04 09:45:10;;;;;;;7.35;4.10;;;5.30;99.90;;;;;;5075143;28;20066;-58
2021/03/04 09:47:41;;;;;;;6.82;3.78;;;5.40;99.90;;;;;;5091598;28;20082;-58
2021/03/04 09:50:27;;;;;;;4.70;3.38;;;5.40;99.90;;;;;;5074426;28;20063;-58
2021/03/04 09:53:07;;;;;;;5.80;3.50;;;5.40;99.90;;;;;;5092425;28;20032;-58
2021/03/04 09:55:40;;;;;;;5.60;3.40;;;5.40;99.90;;;;;;5092794;28;20048;-58
2021/03/04 09:58:10;;;;;;;7.13;4.20;;;5.50;99.90;;;;;;5074202;28;20432;-58
2021/03/04 10:00:38;;;;;;;7.05;3.78;;;5.50;99.90;;;;;;5074036;28;20064;-58
2021/03/04 10:03:14;;;;;;;7.50;3.67;;;5.60;99.90;;;;;;5092572;28;20039;-58
2021/03/04 10:05:50;;;;;;;7.20;3.90;;;5.70;99.90;;;;;;5092820;28;20132;-58
2021/03/04 10:08:17;;;;;;;12.10;4.05;;;5.80;99.90;;;;;;5074186;28;20043;-58
2021/03/04 10:10:45;;;;;;;;;;;5.80;99.90;;;;;;5075249;28;20052;-58
2021/03/04 10:13:11;;;;;;;7.00;2.55;;;6.00;99.90;;;;;;5092883;28;19920;-58
2021/03/04 10:15:42;;;;;;;8.75;3.08;;;6.10;99.90;;;;;;5092124;28;20523;-58
2021/03/04 10:18:13;;;;;;;6.88;2.05;;;6.10;99.90;;;;;;5092579;28;20393;-58
2021/03/04 10:20:41;;;;;;;8.98;2.38;;;6.10;99.90;;;;;;5092279;28;20040;-58
2021/03/04 10:23:08;;;;;;;7.75;2.30;;;6.20;99.90;;;;;;5092056;28;20504;-58
2021/03/04 10:25:33;;;;;;;7.63;1.90;;;6.30;99.90;;;;;;5092172;28;20036;-58
2021/03/04 10:28:02;;;;;;;9.48;1.80;;;6.40;99.90;;;;;;5091978;28;20546;-59
2021/03/04 10:30:29;;;;;;;8.35;2.45;;;6.50;99.90;;;;;;5092353;28;20047;-58
2021/03/04 10:32:55;;;;;;;8.43;2.03;;;6.60;99.90;;;;;;5074087;28;20029;-58
2021/03/04 10:35:24;;;;;;;11.25;2.50;;;6.70;99.90;;;;;;5092198;28;20119;-58
2021/03/04 10:37:50;;;;;;;;;;;6.80;99.90;;;;;;5075486;28;20040;-58
2021/03/04 10:40:16;;;;;;;12.80;2.95;;;6.90;99.90;;;;;;5092364;28;19916;-58
2021/03/04 10:42:43;;;;;;;5.18;1.85;;;6.90;99.90;;;;;;5092300;28;20485;-59
2021/03/04 10:45:11;;;;;;;7.93;2.30;;;6.80;99.90;;;;;;5092479;28;20078;-59
2021/03/04 10:47:38;;;;;;;9.57;1.63;;;6.90;99.90;;;;;;5092182;28;20061;-59
2021/03/04 10:50:06;;;;;;;8.40;1.73;;;6.80;99.90;;;;;;5073911;28;20048;-58
2021/03/04 10:52:32;;;;;;;8.40;1.70;;;6.80;99.90;;;;;;5092457;28;20046;-58
2021/03/04 10:54:58;;;;;;;8.07;2.08;;;6.90;99.90;;;;;;5094766;28;20040;-58
2021/03/04 10:57:25;;;;;;;9.88;1.73;;;6.90;99.90;;;;;;5095944;28;20040;-59
2021/03/04 10:59:51;;;;;;;10.18;2.30;;;6.90;99.90;;;;;;5096035;28;20040;-58
2021/03/04 11:02:16;;;;;;;9.93;2.00;;;7.00;99.90;;;;;;5095795;28;20032;-58
2021/03/04 11:04:42;;;;;;;10.77;1.83;;;7.00;99.90;;;;;;5095732;28;20048;-59
2021/03/04 11:07:08;;;;;;;12.13;2.08;;;7.00;99.90;;;;;;5095898;28;20044;-59
2021/03/04 11:09:34;;;;;;;12.50;2.42;;;7.00;99.90;;;;;;5095806;28;20535;-59
2021/03/04 11:12:01;;;;;;;18.85;3.38;;;7.10;99.90;;;;;;5095466;28;20478;-59
2021/03/04 11:14:26;;;;;;;22.30;4.10;;;7.10;99.90;;;;;;5095540;28;20062;-58
2021/03/04 11:16:52;;;;;;;20.92;3.00;;;7.10;99.90;;;;;;5095611;28;20043;-58
2021/03/04 11:19:18;;;;;;;23.02;2.90;;;7.10;99.90;;;;;;5095626;28;20043;-59
2021/03/04 11:21:45;;;;;;;18.98;2.53;;;7.20;99.90;;;;;;5095675;28;20123;-58
2021/03/04 11:24:12;;;;;;;26.42;3.63;;;7.20;99.90;;;;;;5095586;28;20244;-58
2021/03/04 11:26:38;;;;;;;23.85;3.95;;;7.20;99.90;;;;;;5095285;28;20064;-58
2021/03/04 11:29:08;;;;;;;21.23;3.38;;;7.20;99.90;;;;;;5095280;28;20055;-59
2021/03/04 11:31:34;;;;;;;19.92;3.60;;;7.20;99.90;;;;;;5076594;28;20082;-59
2021/03/04 11:34:00;;;;;;;17.15;3.40;;;7.10;99.90;;;;;;5095047;28;20039;-59
2021/03/04 11:36:28;;;;;;;14.60;2.42;;;7.10;99.90;;;;;;5077034;28;20040;-59
2021/03/04 11:38:53;;;;;;;19.13;3.47;;;7.00;99.90;;;;;;5095123;28;20058;-60
2021/03/04 11:41:19;;;;;;;17.77;3.42;;;7.10;99.90;;;;;;5095020;28;20036;-59
2021/03/04 11:43:45;;;;;;;15.73;2.72;;;7.00;99.90;;;;;;5095219;28;20093;-59
2021/03/04 11:46:12;;;;;;;13.52;3.00;;;7.00;99.90;;;;;;5095245;28;20040;-59
2021/03/04 11:48:37;;;;;;;15.93;3.10;;;7.00;99.90;;;;;;5094981;28;20036;-59
2021/03/04 11:51:03;;;;;;;20.45;3.58;;;7.00;99.90;;;;;;5094702;28;20062;-59
2021/03/04 11:53:29;;;;;;;22.63;3.65;;;7.00;99.90;;;;;;5095041;28;20058;-59
2021/03/04 11:55:54;;;;;;;18.30;2.60;;;6.90;99.90;;;;;;5095063;28;20087;-59
2021/03/04 11:58:20;;;;;;;13.23;2.83;;;6.90;99.90;;;;;;5094573;28;20044;-59
2021/03/04 12:00:46;;;;;;;18.92;3.15;;;6.90;99.90;;;;;;5076580;28;20048;-58
2021/03/04 12:03:11;;;;;;;17.80;3.08;;;7.00;99.90;;;;;;5094942;28;20122;-58
2021/03/04 12:05:37;;;;;;;19.05;3.25;;;6.90;99.90;;;;;;5093518;28;20047;-59
2021/03/04 12:08:03;;;;;;;28.40;3.83;;;7.00;99.90;;;;;;5094566;28;20401;-59
2021/03/04 12:10:29;;;;;;;21.85;3.83;;;7.00;99.90;;;;;;5094454;28;20077;-59
2021/03/04 12:12:55;;;;;;;20.85;2.70;;;6.90;99.50;;;;;;5094524;28;20040;-59
2021/03/04 12:15:21;;;;;;;16.95;3.60;;;6.90;99.90;;;;;;5094278;28;20040;-59
2021/03/04 12:17:47;;;;;;;18.02;2.63;;;7.00;99.90;;;;;;5094619;28;20123;-59
2021/03/04 12:20:14;;;;;;;26.55;3.20;;;6.90;99.60;;;;;;5094298;28;20123;-59
2021/03/04 12:22:39;;;;;;;21.20;2.58;;;7.00;99.80;;;;;;5094438;28;20093;-59
2021/03/04 12:25:07;;;;;;;16.67;2.88;;;6.90;99.30;;;;;;5094637;28;20428;-59
2021/03/04 12:27:33;;;;;;;16.55;2.42;;;7.00;99.90;;;;;;5094075;28;20101;-59
2021/03/04 12:29:59;;;;;;;15.90;2.75;;;7.00;99.00;;;;;;5094382;28;20051;-59
2021/03/04 12:32:25;;;;;;;16.90;2.67;;;7.00;98.60;;;;;;5094287;28;20461;-59
2021/03/04 12:34:51;;;;;;;12.52;2.40;;;7.00;99.30;;;;;;5093792;28;20082;-59
2021/03/04 12:37:17;;;;;;;18.83;4.03;;;6.80;97.70;;;;;;5093956;28;20040;-59
2021/03/04 12:39:42;;;;;;;14.73;2.85;;;6.70;98.80;;;;;;5094015;28;20039;-59
2021/03/04 12:42:08;;;;;;;17.75;2.72;;;6.70;98.90;;;;;;5093959;28;20039;-59
2021/03/04 12:44:34;;;;;;;20.80;2.90;;;6.80;98.20;;;;;;5093891;28;20446;-59
2021/03/04 12:46:59;;;;;;;14.77;2.50;;;6.70;98.10;;;;;;5093970;28;20382;-59
2021/03/04 12:49:25;;;;;;;11.93;2.30;;;6.70;98.80;;;;;;5093474;28;20028;-59
2021/03/04 12:51:51;;;;;;;21.33;3.03;;;6.60;98.40;;;;;;5075279;28;20040;-59